createdAt,value
2018-11-11T00:01:53.912Z,16.67
2018-11-11T00:04:21.494Z,16.47
2018-11-11T00:06:49.006Z,15.90
2018-11-11T00:09:17.161Z,15.93
2018-11-11T00:11:44.711Z,16.50
2018-11-11T00:14:12.245Z,16.70
2018-11-11T00:16:39.786Z,16.90
2018-11-11T00:19:07.668Z,17.63
2018-11-11T00:21:35.296Z,16.63
2018-11-11T00:24:02.852Z,15.97
2018-11-11T00:26:30.413Z,17.33
2018-11-11T00:28:57.932Z,16.27
2018-11-11T00:31:25.654Z,16.93
2018-11-11T00:33:53.323Z,17.90
2018-11-11T00:36:20.782Z,17.20
2018-11-11T00:38:48.267Z,17.43
2018-11-11T00:41:15.893Z,16.87
2018-11-11T00:43:43.394Z,17.23
2018-11-11T00:46:11.076Z,17.73
2018-11-11T00:48:38.751Z,18.47
2018-11-11T00:51:06.469Z,18.30
2018-11-11T00:53:34.059Z,18.43
2018-11-11T00:56:01.614Z,17.63
2018-11-11T00:58:29.161Z,18.93
2018-11-11T01:00:56.760Z,18.63
2018-11-11T01:03:24.253Z,17.83
2018-11-11T01:05:51.813Z,18.70
2018-11-11T01:08:19.241Z,18.43
2018-11-11T01:10:46.795Z,19.30
2018-11-11T01:13:14.301Z,19.23
2018-11-11T01:15:42.021Z,18.33
2018-11-11T01:18:09.560Z,18.30
2018-11-11T01:20:37.108Z,17.77
2018-11-11T01:23:04.736Z,17.33
2018-11-11T01:25:32.327Z,17.50
2018-11-11T01:27:59.964Z,18.10
2018-11-11T01:30:27.993Z,17.73
2018-11-11T01:32:55.587Z,17.83
2018-11-11T01:35:23.234Z,18.27
2018-11-11T01:37:50.757Z,17.90
2018-11-11T01:40:18.329Z,17.47
2018-11-11T01:42:45.971Z,18.40
2018-11-11T01:45:17.522Z,17.63
2018-11-11T01:47:45.786Z,18.07
2018-11-11T01:50:13.459Z,17.20
2018-11-11T01:52:41.129Z,17.83
2018-11-11T01:55:09.708Z,18.40
2018-11-11T01:57:37.626Z,17.40
2018-11-11T02:00:07.527Z,17.47
2018-11-11T02:02:35.799Z,17.17
2018-11-11T02:05:03.793Z,18.33
2018-11-11T02:07:31.288Z,18.70
2018-11-11T02:09:59.487Z,18.57
2018-11-11T02:12:27.227Z,17.70
2018-11-11T02:14:54.728Z,18.13
2018-11-11T02:17:22.326Z,19.47
2018-11-11T02:19:49.825Z,18.67
2018-11-11T02:22:17.386Z,18.80
2018-11-11T02:24:44.869Z,18.90
2018-11-11T02:27:12.367Z,18.97
2018-11-11T02:29:39.956Z,20.03
2018-11-11T02:32:07.451Z,17.87
2018-11-11T02:34:35.008Z,19.50
2018-11-11T02:37:02.637Z,19.47
2018-11-11T02:39:30.165Z,19.00
2018-11-11T02:41:57.786Z,20.37
2018-11-11T02:44:25.303Z,20.03
2018-11-11T02:46:52.743Z,18.37
2018-11-11T02:49:20.243Z,18.23
2018-11-11T02:51:47.727Z,20.37
2018-11-11T02:54:15.871Z,18.20
2018-11-11T02:56:43.577Z,19.03
2018-11-11T02:59:11.186Z,19.10
2018-11-11T03:01:38.752Z,18.43
2018-11-11T03:04:06.293Z,19.97
2018-11-11T03:06:33.803Z,17.30
2018-11-11T03:09:01.294Z,16.73
2018-11-11T03:11:28.860Z,18.40
2018-11-11T03:13:56.990Z,18.03
2018-11-11T03:16:24.460Z,18.83
2018-11-11T03:18:51.944Z,17.83
2018-11-11T03:21:19.764Z,16.83
2018-11-11T03:23:47.157Z,18.90
2018-11-11T03:26:14.589Z,19.30
2018-11-11T03:28:42.106Z,18.20
2018-11-11T03:31:09.589Z,19.23
2018-11-11T03:33:37.143Z,17.37
2018-11-11T03:36:05.343Z,18.87
2018-11-11T03:38:32.986Z,19.23
2018-11-11T03:41:00.636Z,18.30
2018-11-11T03:43:28.136Z,18.23
2018-11-11T03:45:55.614Z,17.53
2018-11-11T03:48:23.084Z,17.37
2018-11-11T03:50:50.665Z,17.67
2018-11-11T03:53:18.171Z,17.93
2018-11-11T03:55:45.735Z,17.57
2018-11-11T03:58:13.210Z,17.37
2018-11-11T04:00:40.702Z,17.67
2018-11-11T04:03:08.217Z,16.67
2018-11-11T04:05:35.774Z,16.37
2018-11-11T04:08:03.268Z,17.97
2018-11-11T04:10:30.968Z,16.77
2018-11-11T04:12:58.458Z,16.70
2018-11-11T04:15:26.005Z,15.93
2018-11-11T04:17:53.584Z,15.73
2018-11-11T04:20:21.107Z,15.77
2018-11-11T04:22:48.792Z,15.63
2018-11-11T04:25:17.227Z,16.47
2018-11-11T04:27:44.845Z,16.33
2018-11-11T04:30:13.286Z,14.17
2018-11-11T04:32:42.076Z,14.50
2018-11-11T04:35:09.745Z,15.87
2018-11-11T04:37:37.274Z,16.03
2018-11-11T04:40:06.730Z,15.47
2018-11-11T04:42:34.225Z,16.30
2018-11-11T04:45:01.691Z,14.63
2018-11-11T04:47:29.317Z,14.53
2018-11-11T04:49:56.919Z,14.67
2018-11-11T04:52:24.541Z,14.50
2018-11-11T04:54:52.200Z,14.47
2018-11-11T04:57:19.695Z,14.03
2018-11-11T04:59:47.185Z,14.37
2018-11-11T05:02:14.949Z,12.50
2018-11-11T05:04:42.642Z,14.03
2018-11-11T05:07:10.172Z,13.93
2018-11-11T05:09:37.668Z,12.77
2018-11-11T05:12:05.242Z,13.73
2018-11-11T05:14:32.883Z,13.57
2018-11-11T05:17:00.509Z,12.70
2018-11-11T05:19:28.051Z,11.97
2018-11-11T05:21:55.697Z,13.10
2018-11-11T05:24:23.174Z,11.80
2018-11-11T05:26:50.826Z,12.13
2018-11-11T05:29:18.563Z,12.90
2018-11-11T05:31:46.066Z,11.80
2018-11-11T05:34:13.874Z,11.97
2018-11-11T05:36:41.414Z,11.53
2018-11-11T05:39:10.974Z,11.40
2018-11-11T05:41:38.797Z,10.93
2018-11-11T05:44:07.364Z,10.60
2018-11-11T05:46:35.146Z,10.70
2018-11-11T05:49:03.047Z,10.53
2018-11-11T05:51:30.676Z,10.50
2018-11-11T05:53:58.384Z,9.47
2018-11-11T05:56:26.000Z,9.80
2018-11-11T05:58:53.860Z,9.37
2018-11-11T06:01:21.450Z,9.07
2018-11-11T06:03:49.222Z,9.80
2018-11-11T06:06:16.990Z,9.30
2018-11-11T06:08:44.638Z,9.33
2018-11-11T06:11:12.464Z,9.73
2018-11-11T06:13:40.037Z,9.00
2018-11-11T06:16:07.977Z,9.07
2018-11-11T06:18:35.973Z,9.60
2018-11-11T06:21:04.076Z,9.07
2018-11-11T06:23:31.623Z,8.10
2018-11-11T06:25:59.717Z,8.57
2018-11-11T06:28:27.482Z,9.10
2018-11-11T06:30:55.144Z,8.10
2018-11-11T06:33:22.781Z,8.30
2018-11-11T06:35:50.690Z,8.53
2018-11-11T06:38:18.385Z,8.20
2018-11-11T06:40:46.113Z,7.80
2018-11-11T06:43:14.181Z,8.07
2018-11-11T06:45:41.920Z,7.10
2018-11-11T06:48:10.486Z,7.73
2018-11-11T06:50:38.068Z,7.57
2018-11-11T06:53:05.959Z,8.07
2018-11-11T06:55:34.493Z,7.37
2018-11-11T06:58:02.227Z,7.73
2018-11-11T07:00:30.118Z,7.30
2018-11-11T07:03:09.075Z,7.40
2018-11-11T07:05:36.988Z,7.17
2018-11-11T07:08:04.825Z,6.53
2018-11-11T07:10:32.508Z,7.50
2018-11-11T07:13:00.338Z,7.03
2018-11-11T07:15:29.261Z,7.20
2018-11-11T07:17:57.162Z,6.97
2018-11-11T07:20:25.080Z,7.00
2018-11-11T07:22:52.884Z,7.03
2018-11-11T07:25:20.570Z,6.73
2018-11-11T07:27:48.737Z,7.80
2018-11-11T07:30:16.571Z,6.97
2018-11-11T07:32:44.261Z,7.03
2018-11-11T07:35:11.943Z,7.50
2018-11-11T07:37:40.364Z,7.20
2018-11-11T07:40:10.625Z,7.40
2018-11-11T07:42:38.220Z,6.60
2018-11-11T07:45:05.996Z,6.83
2018-11-11T07:47:33.720Z,6.20
2018-11-11T07:50:01.510Z,6.00
2018-11-11T07:52:38.913Z,5.77
2018-11-11T07:55:08.284Z,5.70
2018-11-11T07:57:35.645Z,5.70
2018-11-11T08:00:06.361Z,5.47
2018-11-11T08:02:34.136Z,4.97
2018-11-11T08:05:01.769Z,5.27
2018-11-11T08:07:29.438Z,5.10
2018-11-11T08:09:57.476Z,4.77
2018-11-11T08:12:25.069Z,5.27
2018-11-11T08:14:52.746Z,4.87
2018-11-11T08:17:20.317Z,4.60
2018-11-11T08:19:48.157Z,4.67
2018-11-11T08:22:15.679Z,4.43
2018-11-11T08:24:43.521Z,4.73
2018-11-11T08:27:11.165Z,4.67
2018-11-11T08:29:39.153Z,4.27
2018-11-11T08:32:07.078Z,3.93
2018-11-11T08:34:35.491Z,4.40
2018-11-11T08:37:03.298Z,4.43
2018-11-11T08:39:31.432Z,3.97
2018-11-11T08:41:59.282Z,4.30
2018-11-11T08:44:27.089Z,3.90
2018-11-11T08:46:54.858Z,3.63
2018-11-11T08:49:22.795Z,4.00
2018-11-11T08:51:50.703Z,3.53
2018-11-11T08:54:18.787Z,3.80
2018-11-11T08:56:46.364Z,3.40
2018-11-11T08:59:14.062Z,3.20
2018-11-11T09:01:41.977Z,3.70
2018-11-11T09:04:09.824Z,3.53
2018-11-11T09:06:38.447Z,3.50
2018-11-11T09:09:07.136Z,3.30
2018-11-11T09:11:35.770Z,3.40
2018-11-11T09:14:04.462Z,3.77
2018-11-11T09:16:32.336Z,3.23
2018-11-11T09:19:00.276Z,3.50
2018-11-11T09:21:28.056Z,3.30
2018-11-11T09:23:59.031Z,3.57
2018-11-11T09:26:26.857Z,3.23
2018-11-11T09:29:05.046Z,3.50
2018-11-11T09:31:32.823Z,2.90
2018-11-11T09:34:00.818Z,3.03
2018-11-11T09:36:28.758Z,2.90
2018-11-11T09:38:56.611Z,3.10
2018-11-11T09:41:25.452Z,3.53
2018-11-11T09:43:53.729Z,3.87
2018-11-11T09:46:21.582Z,3.30
2018-11-11T09:48:49.549Z,3.23
2018-11-11T09:51:17.382Z,3.23
2018-11-11T09:53:45.192Z,3.50
2018-11-11T09:56:13.376Z,4.03
2018-11-11T09:58:41.587Z,3.20
2018-11-11T10:01:09.527Z,3.60
2018-11-11T10:03:45.307Z,3.63
2018-11-11T10:06:19.732Z,3.37
2018-11-11T10:08:52.611Z,3.77
2018-11-11T10:11:25.912Z,3.50
2018-11-11T10:14:02.208Z,3.90
2018-11-11T10:18:38.678Z,4.30
2018-11-11T10:21:12.667Z,3.67
2018-11-11T10:23:44.663Z,4.00
2018-11-11T10:26:17.119Z,3.67
2018-11-11T10:28:51.330Z,3.93
2018-11-11T10:32:22.491Z,3.80
2018-11-11T10:35:57.324Z,4.30
2018-11-11T10:38:36.281Z,3.90
2018-11-11T10:41:09.318Z,4.33
2018-11-11T10:43:50.406Z,4.37
2018-11-11T10:46:22.180Z,5.07
2018-11-11T10:48:59.985Z,3.77
2018-11-11T10:51:27.995Z,5.00
2018-11-11T10:53:55.871Z,5.17
2018-11-11T10:56:23.685Z,5.20
2018-11-11T10:58:51.683Z,5.07
2018-11-11T11:01:26.100Z,5.23
2018-11-11T11:03:54.327Z,5.30
2018-11-11T11:06:27.870Z,5.03
2018-11-11T11:09:01.579Z,5.80
2018-11-11T11:11:29.558Z,6.10
2018-11-11T11:13:57.731Z,5.73
2018-11-11T11:16:25.633Z,6.17
2018-11-11T11:18:54.931Z,6.17
2018-11-11T11:21:22.868Z,5.20
2018-11-11T11:23:51.595Z,5.33
2018-11-11T11:26:19.592Z,4.80
2018-11-11T11:28:47.486Z,4.80
2018-11-11T11:31:15.501Z,5.27
2018-11-11T11:33:49.922Z,5.00
2018-11-11T11:36:17.729Z,4.13
2018-11-11T11:38:45.643Z,4.73
2018-11-11T11:41:13.663Z,4.30
2018-11-11T11:43:41.522Z,4.40
2018-11-11T11:46:09.461Z,4.53
2018-11-11T11:48:37.154Z,4.43
2018-11-11T11:51:05.507Z,3.80
2018-11-11T14:20:16.072Z,1.50
2018-11-11T14:22:44.910Z,1.70
2018-11-11T14:25:16.456Z,1.80
2018-11-11T14:27:44.497Z,1.50
2018-11-11T14:30:14.942Z,1.77
2018-11-11T14:32:43.186Z,1.70
2018-11-11T14:35:13.944Z,1.40
2018-11-11T14:37:42.369Z,1.07
2018-11-11T14:40:13.143Z,1.77
2018-11-11T14:42:41.149Z,1.73
2018-11-11T14:45:10.939Z,1.77
2018-11-11T14:47:39.243Z,1.30
2018-11-11T14:50:08.450Z,1.20
2018-11-11T14:52:36.620Z,1.13
2018-11-11T14:55:06.715Z,1.10
2018-11-11T14:57:34.585Z,1.20
2018-11-11T15:00:02.469Z,1.10
2018-11-11T15:02:30.452Z,1.10
2018-11-11T15:04:58.541Z,1.13
2018-11-11T15:07:26.504Z,1.07
2018-11-11T15:09:54.535Z,1.23
2018-11-11T15:12:22.451Z,1.47
2018-11-11T15:14:50.433Z,1.47
2018-11-11T15:17:19.112Z,1.20
2018-11-11T15:19:47.026Z,1.10
2018-11-11T15:22:14.882Z,1.10
2018-11-11T15:24:42.758Z,1.07
2018-11-11T15:27:10.633Z,1.20
2018-11-11T15:29:38.674Z,1.00
2018-11-11T15:32:06.369Z,1.40
2018-11-11T15:34:38.387Z,1.10
2018-11-11T15:37:06.435Z,1.40
2018-11-11T15:39:34.391Z,1.10
2018-11-11T15:42:02.323Z,1.20
2018-11-11T15:44:30.303Z,1.43
2018-11-11T15:47:00.532Z,2.00
2018-11-11T15:49:33.787Z,1.07
2018-11-11T15:52:07.378Z,1.67
2018-11-11T15:54:36.207Z,3.17
2018-11-11T15:57:04.709Z,1.30
2018-11-11T15:59:33.071Z,1.60
2018-11-11T16:02:00.856Z,1.40
2018-11-11T16:04:28.864Z,1.27
2018-11-11T16:06:56.759Z,1.37
2018-11-11T16:09:24.637Z,0.90
2018-11-11T16:11:52.637Z,1.20
2018-11-11T16:14:20.420Z,1.00
2018-11-11T16:16:48.157Z,2.47
2018-11-11T16:19:16.021Z,1.10
2018-11-11T16:21:43.734Z,1.00
2018-11-11T16:24:11.768Z,1.20
2018-11-11T16:26:39.765Z,4.80
2018-11-11T16:29:07.673Z,5.63
2018-11-11T16:31:35.655Z,4.43
2018-11-11T16:34:04.031Z,4.93
2018-11-11T16:36:31.904Z,2.67
2018-11-11T16:38:59.727Z,4.00
2018-11-11T16:41:27.549Z,4.13
2018-11-11T16:43:55.467Z,3.30
2018-11-11T16:46:23.372Z,3.10
2018-11-11T16:48:51.401Z,3.83
2018-11-11T16:51:19.619Z,1.40
2018-11-11T16:53:47.540Z,1.20
2018-11-11T16:56:15.439Z,1.30
2018-11-11T16:58:44.125Z,1.47
2018-11-11T17:01:12.075Z,1.30
2018-11-11T17:03:41.014Z,1.00
2018-11-11T17:06:08.656Z,1.20
2018-11-11T17:08:36.361Z,1.50
2018-11-11T17:11:04.260Z,1.30
2018-11-11T17:13:32.186Z,1.23
2018-11-11T17:16:00.217Z,2.93
2018-11-11T17:18:28.113Z,1.40
2018-11-11T17:20:56.062Z,2.00
2018-11-11T17:23:23.712Z,2.20
2018-11-11T17:25:51.506Z,2.07
2018-11-11T17:28:19.413Z,2.40
2018-11-11T17:30:47.514Z,1.43
2018-11-11T17:33:16.157Z,1.80
2018-11-11T17:35:43.961Z,1.73
2018-11-11T17:38:11.801Z,1.60
2018-11-11T17:40:39.868Z,1.50
2018-11-11T17:43:07.741Z,1.63
2018-11-11T17:45:35.691Z,2.67
2018-11-11T17:48:03.616Z,1.93
2018-11-11T17:50:32.666Z,2.00
2018-11-11T17:53:01.734Z,1.70
2018-11-11T17:55:30.106Z,1.33
2018-11-11T17:57:58.004Z,1.60
2018-11-11T18:00:26.891Z,1.63
2018-11-11T18:02:55.389Z,1.40
2018-11-11T18:05:24.281Z,3.60
2018-11-11T18:07:52.183Z,2.10
2018-11-11T18:10:21.064Z,1.50
2018-11-11T18:12:48.951Z,4.90
2018-11-11T18:15:21.694Z,2.07
2018-11-11T18:17:49.596Z,3.27
2018-11-11T18:20:19.017Z,9.03
2018-11-11T18:22:47.564Z,12.93
2018-11-11T18:25:15.351Z,5.17
2018-11-11T18:27:43.274Z,3.33
2018-11-11T18:30:14.906Z,2.67
2018-11-11T18:32:43.069Z,2.07
2018-11-11T18:35:12.448Z,2.30
2018-11-11T18:37:40.434Z,1.87
2018-11-11T18:40:09.953Z,1.80
2018-11-11T18:42:37.695Z,1.80
2018-11-11T18:45:07.321Z,2.30
2018-11-11T18:47:35.065Z,2.80
2018-11-11T18:50:02.846Z,3.63
2018-11-11T18:52:30.476Z,3.00
2018-11-11T18:54:58.128Z,3.00
2018-11-11T18:57:25.984Z,3.13
2018-11-11T18:59:54.050Z,2.60
2018-11-11T19:02:21.621Z,3.00
2018-11-11T19:04:49.271Z,5.90
2018-11-11T19:07:17.301Z,5.50
2018-11-11T19:09:44.939Z,3.80
2018-11-11T19:12:12.791Z,6.33
2018-11-11T19:14:40.457Z,5.17
2018-11-11T19:17:08.471Z,4.10
2018-11-11T19:19:36.150Z,2.50
2018-11-11T19:22:03.898Z,2.30
2018-11-11T19:24:32.026Z,2.77
2018-11-11T19:26:59.833Z,2.40
2018-11-11T19:29:27.511Z,2.13
2018-11-11T19:31:55.692Z,2.40
2018-11-11T19:34:23.405Z,2.10
2018-11-11T19:36:51.159Z,2.37
2018-11-11T20:27:07.557Z,2.50
2018-11-11T20:29:35.285Z,2.80
2018-11-11T20:32:02.900Z,2.43
2018-11-11T20:34:30.427Z,2.60
2018-11-11T20:36:58.003Z,3.03
2018-11-11T20:39:25.722Z,2.77
2018-11-11T20:41:53.353Z,2.90
2018-11-11T20:44:21.021Z,2.67
2018-11-11T20:46:48.480Z,2.90
2018-11-11T20:49:16.218Z,2.47
2018-11-11T20:51:43.946Z,2.80
2018-11-11T20:54:11.682Z,2.70
2018-11-11T20:56:39.491Z,3.20
2018-11-11T20:59:06.917Z,3.17
2018-11-11T21:01:34.495Z,3.10
2018-11-11T21:04:02.129Z,3.20
2018-11-11T21:06:29.821Z,3.77
2018-11-11T21:08:57.538Z,4.03
2018-11-11T21:11:25.194Z,3.77
2018-11-11T21:13:52.840Z,4.67
2018-11-11T21:16:22.224Z,3.60
2018-11-11T21:18:49.839Z,4.13
2018-11-11T21:21:17.594Z,3.77
2018-11-11T21:23:45.183Z,4.00
2018-11-11T21:26:12.765Z,4.20
2018-11-11T21:28:40.407Z,4.10
2018-11-11T21:31:08.069Z,4.13
2018-11-11T21:33:36.155Z,4.27
2018-11-11T21:36:03.971Z,4.53
2018-11-11T21:38:31.621Z,4.70
2018-11-11T21:40:59.515Z,5.03
2018-11-11T21:43:27.280Z,4.73
2018-11-11T21:45:55.028Z,5.23
2018-11-11T21:48:22.598Z,5.27
2018-11-11T21:50:50.228Z,5.87
2018-11-11T21:53:35.864Z,5.80
2018-11-11T21:56:03.747Z,6.00
2018-11-11T21:58:31.296Z,6.13
2018-11-11T22:00:58.918Z,5.90
2018-11-11T22:03:28.072Z,5.63
2018-11-11T22:05:56.167Z,6.07
2018-11-11T22:08:24.165Z,5.53
2018-11-11T22:10:52.380Z,5.77
2018-11-11T22:13:20.680Z,5.63
2018-11-11T22:15:48.611Z,5.17
2018-11-11T22:18:16.444Z,4.50
2018-11-11T22:20:44.061Z,4.20
2018-11-11T22:23:11.712Z,4.57
2018-11-11T22:25:39.502Z,4.20
2018-11-11T22:28:07.212Z,4.33
2018-11-11T22:30:35.085Z,4.17
2018-11-11T22:33:02.838Z,3.60
2018-11-11T22:35:30.503Z,3.50
2018-11-11T22:37:58.114Z,3.40
2018-11-11T22:40:25.891Z,3.80
2018-11-11T22:42:53.553Z,3.10
2018-11-11T22:45:21.210Z,3.23
2018-11-11T22:47:48.906Z,3.00
2018-11-11T22:50:17.696Z,3.00
2018-11-11T22:52:45.385Z,2.53
2018-11-11T22:55:13.157Z,2.50
2018-11-11T22:57:41.329Z,2.53
2018-11-11T23:00:21.363Z,2.80
2018-11-11T23:02:49.707Z,3.07
2018-11-11T23:05:18.787Z,2.90
2018-11-11T23:07:46.694Z,3.27
2018-11-11T23:10:14.407Z,3.50
2018-11-11T23:12:42.183Z,3.60
2018-11-11T23:15:11.151Z,4.10
2018-11-11T23:17:38.668Z,4.80
2018-11-11T23:20:08.248Z,4.67
2018-11-11T23:22:35.911Z,5.50
2018-11-11T23:25:04.300Z,5.00
2018-11-11T23:27:31.915Z,5.40
2018-11-11T23:29:59.717Z,5.07
2018-11-11T23:32:27.453Z,6.87
2018-11-11T23:34:55.210Z,5.33
2018-11-11T23:37:22.685Z,5.90
2018-11-11T23:39:50.200Z,6.10
2018-11-11T23:42:18.288Z,6.20
2018-11-11T23:44:45.827Z,6.23
2018-11-11T23:47:13.440Z,6.50
2018-11-11T23:49:41.307Z,5.83
2018-11-11T23:52:09.018Z,6.80
2018-11-11T23:54:36.694Z,6.67
2018-11-11T23:57:04.564Z,7.10
2018-11-11T23:59:32.213Z,6.70
